sensor_id;sensor_type;location;lat;lon;timestamp;P1;durP1;ratioP1;P2;durP2;ratioP2
65377;SDS011;51982;51.042;13.806;2023-08-06T00:02:15;5.03;;;3.10;;
65377;SDS011;51982;51.042;13.806;2023-08-06T00:04:41;3.60;;;2.57;;
65377;SDS011;51982;51.042;13.806;2023-08-06T00:07:06;4.40;;;2.72;;
65377;SDS011;51982;51.042;13.806;2023-08-06T00:09:31;5.00;;;2.40;;
65377;SDS011;51982;51.042;13.806;2023-08-06T00:11:56;3.30;;;2.40;;
65377;SDS011;51982;51.042;13.806;2023-08-06T00:14:22;2.70;;;2.35;;
65377;SDS011;51982;51.042;13.806;2023-08-06T00:16:47;3.28;;;2.60;;
65377;SDS011;51982;51.042;13.806;2023-08-06T00:19:12;4.47;;;2.50;;
65377;SDS011;51982;51.042;13.806;2023-08-06T00:21:38;2.55;;;2.35;;
65377;SDS011;51982;51.042;13.806;2023-08-06T00:24:03;3.63;;;2.40;;
65377;SDS011;51982;51.042;13.806;2023-08-06T00:26:28;3.72;;;2.72;;
65377;SDS011;51982;51.042;13.806;2023-08-06T00:28:53;4.15;;;2.63;;
65377;SDS011;51982;51.042;13.806;2023-08-06T00:31:19;4.00;;;2.88;;
65377;SDS011;51982;51.042;13.806;2023-08-06T00:33:44;3.38;;;2.60;;
65377;SDS011;51982;51.042;13.806;2023-08-06T00:36:09;3.53;;;2.85;;
65377;SDS011;51982;51.042;13.806;2023-08-06T00:38:35;4.18;;;2.65;;
65377;SDS011;51982;51.042;13.806;2023-08-06T00:41:00;4.53;;;3.00;;
65377;SDS011;51982;51.042;13.806;2023-08-06T00:43:25;4.60;;;2.75;;
65377;SDS011;51982;51.042;13.806;2023-08-06T00:45:50;4.88;;;3.28;;
65377;SDS011;51982;51.042;13.806;2023-08-06T00:48:16;4.93;;;3.10;;
65377;SDS011;51982;51.042;13.806;2023-08-06T00:50:41;4.85;;;3.03;;
65377;SDS011;51982;51.042;13.806;2023-08-06T00:53:06;4.25;;;2.92;;
65377;SDS011;51982;51.042;13.806;2023-08-06T00:55:32;5.32;;;3.40;;
65377;SDS011;51982;51.042;13.806;2023-08-06T00:57:58;4.65;;;3.17;;
65377;SDS011;51982;51.042;13.806;2023-08-06T01:00:24;4.47;;;3.30;;
65377;SDS011;51982;51.042;13.806;2023-08-06T01:02:50;4.22;;;3.15;;
65377;SDS011;51982;51.042;13.806;2023-08-06T01:05:16;3.60;;;2.67;;
65377;SDS011;51982;51.042;13.806;2023-08-06T01:07:48;5.03;;;2.80;;
65377;SDS011;51982;51.042;13.806;2023-08-06T01:13:15;5.30;;;2.80;;
65377;SDS011;51982;51.042;13.806;2023-08-06T01:15:52;4.13;;;2.95;;
65377;SDS011;51982;51.042;13.806;2023-08-06T01:18:22;4.10;;;2.85;;
65377;SDS011;51982;51.042;13.806;2023-08-06T01:20:47;3.95;;;2.42;;
65377;SDS011;51982;51.042;13.806;2023-08-06T01:23:14;3.70;;;2.50;;
65377;SDS011;51982;51.042;13.806;2023-08-06T01:25:46;2.40;;;2.20;;
65377;SDS011;51982;51.042;13.806;2023-08-06T01:29:04;4.40;;;2.33;;
65377;SDS011;51982;51.042;13.806;2023-08-06T01:31:13;2.45;;;2.00;;
65377;SDS011;51982;51.042;13.806;2023-08-06T01:33:43;4.55;;;2.33;;
65377;SDS011;51982;51.042;13.806;2023-08-06T01:36:12;3.95;;;2.53;;
65377;SDS011;51982;51.042;13.806;2023-08-06T01:38:40;4.30;;;2.60;;
65377;SDS011;51982;51.042;13.806;2023-08-06T01:41:05;3.83;;;2.43;;
65377;SDS011;51982;51.042;13.806;2023-08-06T01:43:30;5.47;;;2.60;;
65377;SDS011;51982;51.042;13.806;2023-08-06T01:45:56;4.17;;;2.70;;
65377;SDS011;51982;51.042;13.806;2023-08-06T01:48:21;2.87;;;2.50;;
65377;SDS011;51982;51.042;13.806;2023-08-06T01:50:46;3.43;;;2.40;;
65377;SDS011;51982;51.042;13.806;2023-08-06T01:53:11;3.13;;;2.60;;
65377;SDS011;51982;51.042;13.806;2023-08-06T01:55:37;4.13;;;2.50;;
65377;SDS011;51982;51.042;13.806;2023-08-06T01:58:02;3.20;;;2.65;;
65377;SDS011;51982;51.042;13.806;2023-08-06T02:00:27;3.43;;;2.40;;
65377;SDS011;51982;51.042;13.806;2023-08-06T02:02:53;3.53;;;2.90;;
65377;SDS011;51982;51.042;13.806;2023-08-06T02:05:19;5.30;;;2.92;;
65377;SDS011;51982;51.042;13.806;2023-08-06T02:07:44;3.15;;;2.85;;
65377;SDS011;51982;51.042;13.806;2023-08-06T02:10:09;5.00;;;3.03;;
65377;SDS011;51982;51.042;13.806;2023-08-06T02:12:35;3.75;;;3.00;;
65377;SDS011;51982;51.042;13.806;2023-08-06T02:15:00;4.25;;;3.20;;
65377;SDS011;51982;51.042;13.806;2023-08-06T02:17:25;4.20;;;3.10;;
65377;SDS011;51982;51.042;13.806;2023-08-06T02:19:50;4.70;;;2.80;;
65377;SDS011;51982;51.042;13.806;2023-08-06T02:22:16;4.67;;;3.10;;
65377;SDS011;51982;51.042;13.806;2023-08-06T02:24:41;4.03;;;3.10;;
65377;SDS011;51982;51.042;13.806;2023-08-06T02:27:06;3.75;;;2.75;;
65377;SDS011;51982;51.042;13.806;2023-08-06T02:29:31;4.90;;;3.07;;
65377;SDS011;51982;51.042;13.806;2023-08-06T02:31:57;7.57;;;3.30;;
65377;SDS011;51982;51.042;13.806;2023-08-06T02:34:22;3.13;;;2.80;;
65377;SDS011;51982;51.042;13.806;2023-08-06T02:36:47;3.25;;;2.78;;
65377;SDS011;51982;51.042;13.806;2023-08-06T02:39:12;2.92;;;2.58;;
65377;SDS011;51982;51.042;13.806;2023-08-06T02:41:38;5.32;;;2.90;;
65377;SDS011;51982;51.042;13.806;2023-08-06T02:44:03;4.30;;;2.83;;
65377;SDS011;51982;51.042;13.806;2023-08-06T02:46:28;4.13;;;2.85;;
65377;SDS011;51982;51.042;13.806;2023-08-06T02:48:54;3.90;;;2.97;;
65377;SDS011;51982;51.042;13.806;2023-08-06T02:51:19;3.08;;;2.78;;
65377;SDS011;51982;51.042;13.806;2023-08-06T02:53:44;3.73;;;2.93;;
65377;SDS011;51982;51.042;13.806;2023-08-06T02:56:10;6.32;;;2.90;;
65377;SDS011;51982;51.042;13.806;2023-08-06T02:58:35;6.50;;;3.05;;
65377;SDS011;51982;51.042;13.806;2023-08-06T03:01:04;21.30;;;3.50;;
65377;SDS011;51982;51.042;13.806;2023-08-06T03:03:30;5.45;;;3.20;;
65377;SDS011;51982;51.042;13.806;2023-08-06T03:05:56;4.05;;;3.40;;
65377;SDS011;51982;51.042;13.806;2023-08-06T03:08:21;3.88;;;3.08;;
65377;SDS011;51982;51.042;13.806;2023-08-06T03:10:47;4.40;;;3.35;;
65377;SDS011;51982;51.042;13.806;2023-08-06T03:13:13;4.53;;;3.40;;
65377;SDS011;51982;51.042;13.806;2023-08-06T03:15:38;4.55;;;3.20;;
65377;SDS011;51982;51.042;13.806;2023-08-06T03:18:04;5.70;;;3.10;;
65377;SDS011;51982;51.042;13.806;2023-08-06T03:20:30;3.47;;;3.15;;
65377;SDS011;51982;51.042;13.806;2023-08-06T03:22:57;3.53;;;3.20;;
65377;SDS011;51982;51.042;13.806;2023-08-06T03:25:22;6.85;;;3.28;;
65377;SDS011;51982;51.042;13.806;2023-08-06T03:27:47;5.78;;;3.20;;
65377;SDS011;51982;51.042;13.806;2023-08-06T03:30:12;3.35;;;2.85;;
65377;SDS011;51982;51.042;13.806;2023-08-06T03:32:38;3.78;;;3.35;;
65377;SDS011;51982;51.042;13.806;2023-08-06T03:35:03;3.60;;;3.03;;
65377;SDS011;51982;51.042;13.806;2023-08-06T03:37:29;5.03;;;2.90;;
65377;SDS011;51982;51.042;13.806;2023-08-06T03:39:54;3.13;;;2.53;;
65377;SDS011;51982;51.042;13.806;2023-08-06T03:42:19;4.30;;;3.05;;
65377;SDS011;51982;51.042;13.806;2023-08-06T03:44:44;6.17;;;3.03;;
65377;SDS011;51982;51.042;13.806;2023-08-06T03:47:09;5.28;;;3.05;;
65377;SDS011;51982;51.042;13.806;2023-08-06T03:49:35;2.97;;;2.60;;
65377;SDS011;51982;51.042;13.806;2023-08-06T03:52:00;3.80;;;3.10;;
65377;SDS011;51982;51.042;13.806;2023-08-06T03:54:25;3.67;;;2.70;;
65377;SDS011;51982;51.042;13.806;2023-08-06T03:56:51;3.78;;;2.67;;
65377;SDS011;51982;51.042;13.806;2023-08-06T03:59:16;3.72;;;2.92;;
65377;SDS011;51982;51.042;13.806;2023-08-06T04:01:41;3.05;;;2.72;;
65377;SDS011;51982;51.042;13.806;2023-08-06T04:04:09;3.90;;;3.08;;
65377;SDS011;51982;51.042;13.806;2023-08-06T04:06:35;3.53;;;2.70;;
65377;SDS011;51982;51.042;13.806;2023-08-06T04:09:00;3.20;;;2.60;;
65377;SDS011;51982;51.042;13.806;2023-08-06T04:11:25;2.70;;;2.35;;
65377;SDS011;51982;51.042;13.806;2023-08-06T04:13:50;3.58;;;2.67;;
65377;SDS011;51982;51.042;13.806;2023-08-06T04:16:16;3.08;;;2.28;;
65377;SDS011;51982;51.042;13.806;2023-08-06T04:18:41;3.55;;;2.20;;
65377;SDS011;51982;51.042;13.806;2023-08-06T04:21:06;3.13;;;2.40;;
65377;SDS011;51982;51.042;13.806;2023-08-06T04:23:31;4.78;;;2.50;;
65377;SDS011;51982;51.042;13.806;2023-08-06T04:25:57;3.53;;;2.40;;
65377;SDS011;51982;51.042;13.806;2023-08-06T04:28:22;3.22;;;2.00;;
65377;SDS011;51982;51.042;13.806;2023-08-06T04:30:48;2.45;;;2.25;;
65377;SDS011;51982;51.042;13.806;2023-08-06T04:33:13;2.92;;;2.38;;
65377;SDS011;51982;51.042;13.806;2023-08-06T04:35:38;2.85;;;2.50;;
65377;SDS011;51982;51.042;13.806;2023-08-06T04:38:04;2.60;;;1.80;;
65377;SDS011;51982;51.042;13.806;2023-08-06T04:40:29;2.72;;;2.00;;
65377;SDS011;51982;51.042;13.806;2023-08-06T04:42:54;2.83;;;1.93;;
65377;SDS011;51982;51.042;13.806;2023-08-06T04:45:19;3.83;;;2.03;;
65377;SDS011;51982;51.042;13.806;2023-08-06T04:47:45;2.03;;;1.85;;
65377;SDS011;51982;51.042;13.806;2023-08-06T04:50:10;2.37;;;1.90;;
65377;SDS011;51982;51.042;13.806;2023-08-06T04:52:35;1.75;;;1.65;;
65377;SDS011;51982;51.042;13.806;2023-08-06T04:55:01;2.85;;;1.77;;
65377;SDS011;51982;51.042;13.806;2023-08-06T04:57:27;2.03;;;1.80;;
65377;SDS011;51982;51.042;13.806;2023-08-06T04:59:52;2.53;;;1.90;;
65377;SDS011;51982;51.042;13.806;2023-08-06T05:02:17;2.42;;;2.03;;
65377;SDS011;51982;51.042;13.806;2023-08-06T05:04:42;2.17;;;1.90;;
65377;SDS011;51982;51.042;13.806;2023-08-06T05:07:08;2.10;;;1.90;;
65377;SDS011;51982;51.042;13.806;2023-08-06T05:09:33;1.75;;;1.52;;
65377;SDS011;51982;51.042;13.806;2023-08-06T05:12:00;2.30;;;1.70;;
65377;SDS011;51982;51.042;13.806;2023-08-06T05:14:26;2.17;;;1.70;;
65377;SDS011;51982;51.042;13.806;2023-08-06T05:16:51;2.38;;;1.80;;
65377;SDS011;51982;51.042;13.806;2023-08-06T05:19:17;2.00;;;1.80;;
65377;SDS011;51982;51.042;13.806;2023-08-06T05:21:42;4.50;;;1.87;;
65377;SDS011;51982;51.042;13.806;2023-08-06T05:24:07;2.37;;;1.80;;
65377;SDS011;51982;51.042;13.806;2023-08-06T05:26:32;4.97;;;2.10;;
65377;SDS011;51982;51.042;13.806;2023-08-06T05:28:58;4.22;;;2.05;;
65377;SDS011;51982;51.042;13.806;2023-08-06T05:31:24;2.35;;;2.10;;
65377;SDS011;51982;51.042;13.806;2023-08-06T05:33:49;2.83;;;2.20;;
65377;SDS011;51982;51.042;13.806;2023-08-06T05:36:14;2.08;;;1.55;;
65377;SDS011;51982;51.042;13.806;2023-08-06T05:38:39;4.82;;;2.15;;
65377;SDS011;51982;51.042;13.806;2023-08-06T05:41:05;2.75;;;2.17;;
65377;SDS011;51982;51.042;13.806;2023-08-06T05:43:30;3.28;;;2.20;;
65377;SDS011;51982;51.042;13.806;2023-08-06T05:45:55;3.60;;;2.10;;
65377;SDS011;51982;51.042;13.806;2023-08-06T05:48:21;2.30;;;2.10;;
65377;SDS011;51982;51.042;13.806;2023-08-06T05:50:47;2.67;;;2.20;;
65377;SDS011;51982;51.042;13.806;2023-08-06T05:53:12;3.70;;;2.28;;
65377;SDS011;51982;51.042;13.806;2023-08-06T05:55:38;3.13;;;2.33;;
65377;SDS011;51982;51.042;13.806;2023-08-06T05:58:03;3.25;;;2.13;;
65377;SDS011;51982;51.042;13.806;2023-08-06T06:00:29;4.00;;;2.17;;
65377;SDS011;51982;51.042;13.806;2023-08-06T06:02:54;2.60;;;2.25;;
65377;SDS011;51982;51.042;13.806;2023-08-06T06:05:20;2.70;;;2.03;;
65377;SDS011;51982;51.042;13.806;2023-08-06T06:07:45;2.80;;;2.20;;
65377;SDS011;51982;51.042;13.806;2023-08-06T06:10:10;4.47;;;2.10;;
65377;SDS011;51982;51.042;13.806;2023-08-06T06:12:37;3.67;;;2.30;;
65377;SDS011;51982;51.042;13.806;2023-08-06T06:15:03;2.17;;;1.98;;
65377;SDS011;51982;51.042;13.806;2023-08-06T06:17:29;3.13;;;2.35;;
65377;SDS011;51982;51.042;13.806;2023-08-06T06:19:54;2.88;;;2.40;;
65377;SDS011;51982;51.042;13.806;2023-08-06T06:22:19;2.80;;;2.47;;
65377;SDS011;51982;51.042;13.806;2023-08-06T06:24:44;2.60;;;2.40;;
65377;SDS011;51982;51.042;13.806;2023-08-06T06:27:10;2.30;;;2.07;;
65377;SDS011;51982;51.042;13.806;2023-08-06T06:29:35;2.60;;;2.17;;
65377;SDS011;51982;51.042;13.806;2023-08-06T06:32:00;2.47;;;2.00;;
65377;SDS011;51982;51.042;13.806;2023-08-06T06:34:25;2.90;;;2.20;;
65377;SDS011;51982;51.042;13.806;2023-08-06T06:36:51;2.37;;;1.87;;
65377;SDS011;51982;51.042;13.806;2023-08-06T06:39:17;4.43;;;1.90;;
65377;SDS011;51982;51.042;13.806;2023-08-06T06:41:42;5.20;;;2.10;;
65377;SDS011;51982;51.042;13.806;2023-08-06T06:44:09;2.15;;;1.92;;
65377;SDS011;51982;51.042;13.806;2023-08-06T06:46:34;2.50;;;1.95;;
65377;SDS011;51982;51.042;13.806;2023-08-06T06:48:59;2.20;;;2.00;;
65377;SDS011;51982;51.042;13.806;2023-08-06T06:51:25;2.95;;;1.80;;
65377;SDS011;51982;51.042;13.806;2023-08-06T06:53:50;3.00;;;2.20;;
65377;SDS011;51982;51.042;13.806;2023-08-06T06:56:15;3.33;;;2.10;;
65377;SDS011;51982;51.042;13.806;2023-08-06T06:58:40;2.50;;;2.30;;
65377;SDS011;51982;51.042;13.806;2023-08-06T07:01:06;3.05;;;2.35;;
65377;SDS011;51982;51.042;13.806;2023-08-06T07:03:31;2.45;;;2.25;;
65377;SDS011;51982;51.042;13.806;2023-08-06T07:05:57;4.15;;;2.38;;
65377;SDS011;51982;51.042;13.806;2023-08-06T07:08:25;4.68;;;2.25;;
65377;SDS011;51982;51.042;13.806;2023-08-06T07:10:58;2.50;;;2.15;;
65377;SDS011;51982;51.042;13.806;2023-08-06T07:13:25;3.15;;;2.78;;
65377;SDS011;51982;51.042;13.806;2023-08-06T07:15:50;3.88;;;2.47;;
65377;SDS011;51982;51.042;13.806;2023-08-06T07:18:15;3.92;;;2.50;;
65377;SDS011;51982;51.042;13.806;2023-08-06T07:20:41;2.43;;;2.20;;
65377;SDS011;51982;51.042;13.806;2023-08-06T07:23:06;3.40;;;2.57;;
65377;SDS011;51982;51.042;13.806;2023-08-06T07:25:31;3.03;;;2.60;;
65377;SDS011;51982;51.042;13.806;2023-08-06T07:27:56;5.40;;;2.70;;
65377;SDS011;51982;51.042;13.806;2023-08-06T07:30:22;2.90;;;2.50;;
65377;SDS011;51982;51.042;13.806;2023-08-06T07:32:47;3.08;;;2.53;;
65377;SDS011;51982;51.042;13.806;2023-08-06T07:35:12;3.57;;;2.70;;
65377;SDS011;51982;51.042;13.806;2023-08-06T07:37:39;3.65;;;3.03;;
65377;SDS011;51982;51.042;13.806;2023-08-06T07:40:04;3.70;;;2.93;;
65377;SDS011;51982;51.042;13.806;2023-08-06T07:42:30;5.15;;;3.05;;
65377;SDS011;51982;51.042;13.806;2023-08-06T07:44:56;5.57;;;3.15;;
65377;SDS011;51982;51.042;13.806;2023-08-06T07:47:22;5.10;;;3.58;;
65377;SDS011;51982;51.042;13.806;2023-08-06T07:49:48;4.15;;;3.25;;
65377;SDS011;51982;51.042;13.806;2023-08-06T07:52:13;3.85;;;3.25;;
65377;SDS011;51982;51.042;13.806;2023-08-06T07:54:38;3.40;;;2.92;;
65377;SDS011;51982;51.042;13.806;2023-08-06T07:57:04;5.05;;;3.20;;
65377;SDS011;51982;51.042;13.806;2023-08-06T07:59:29;4.88;;;2.80;;
65377;SDS011;51982;51.042;13.806;2023-08-06T08:01:55;5.90;;;3.60;;
65377;SDS011;51982;51.042;13.806;2023-08-06T08:04:20;6.07;;;3.40;;
65377;SDS011;51982;51.042;13.806;2023-08-06T08:06:46;5.43;;;3.03;;
65377;SDS011;51982;51.042;13.806;2023-08-06T08:09:12;4.97;;;3.10;;
65377;SDS011;51982;51.042;13.806;2023-08-06T08:11:38;3.33;;;2.90;;
65377;SDS011;51982;51.042;13.806;2023-08-06T08:14:04;4.32;;;3.08;;
65377;SDS011;51982;51.042;13.806;2023-08-06T08:16:29;3.92;;;2.88;;
65377;SDS011;51982;51.042;13.806;2023-08-06T08:18:54;3.85;;;3.00;;
65377;SDS011;51982;51.042;13.806;2023-08-06T08:21:19;3.38;;;2.65;;
65377;SDS011;51982;51.042;13.806;2023-08-06T08:23:54;5.47;;;2.80;;
65377;SDS011;51982;51.042;13.806;2023-08-06T08:26:19;4.63;;;2.63;;
65377;SDS011;51982;51.042;13.806;2023-08-06T08:28:44;4.57;;;3.00;;
65377;SDS011;51982;51.042;13.806;2023-08-06T08:31:10;3.35;;;2.75;;
65377;SDS011;51982;51.042;13.806;2023-08-06T08:33:36;3.58;;;2.63;;
65377;SDS011;51982;51.042;13.806;2023-08-06T08:36:02;4.63;;;2.53;;
65377;SDS011;51982;51.042;13.806;2023-08-06T08:38:27;2.53;;;2.30;;
65377;SDS011;51982;51.042;13.806;2023-08-06T08:40:53;2.93;;;2.17;;
65377;SDS011;51982;51.042;13.806;2023-08-06T08:43:21;4.50;;;2.38;;
65377;SDS011;51982;51.042;13.806;2023-08-06T08:45:47;2.55;;;2.20;;
65377;SDS011;51982;51.042;13.806;2023-08-06T08:48:15;3.97;;;2.40;;
65377;SDS011;51982;51.042;13.806;2023-08-06T08:50:42;3.03;;;2.42;;
65377;SDS011;51982;51.042;13.806;2023-08-06T08:53:09;3.22;;;2.05;;
65377;SDS011;51982;51.042;13.806;2023-08-06T08:55:37;2.92;;;2.25;;
65377;SDS011;51982;51.042;13.806;2023-08-06T08:58:04;3.13;;;2.10;;
65377;SDS011;51982;51.042;13.806;2023-08-06T09:00:29;2.73;;;2.07;;
65377;SDS011;51982;51.042;13.806;2023-08-06T09:02:54;2.80;;;1.90;;
65377;SDS011;51982;51.042;13.806;2023-08-06T09:05:21;1.88;;;1.60;;
65377;SDS011;51982;51.042;13.806;2023-08-06T09:07:49;1.95;;;1.65;;
65377;SDS011;51982;51.042;13.806;2023-08-06T09:10:17;2.33;;;1.77;;
65377;SDS011;51982;51.042;13.806;2023-08-06T09:12:48;2.30;;;1.60;;
65377;SDS011;51982;51.042;13.806;2023-08-06T09:15:18;2.40;;;1.77;;
65377;SDS011;51982;51.042;13.806;2023-08-06T09:17:44;2.22;;;1.77;;
65377;SDS011;51982;51.042;13.806;2023-08-06T09:20:13;1.98;;;1.67;;
65377;SDS011;51982;51.042;13.806;2023-08-06T09:22:39;1.70;;;1.50;;
65377;SDS011;51982;51.042;13.806;2023-08-06T09:25:05;3.25;;;1.75;;
65377;SDS011;51982;51.042;13.806;2023-08-06T09:27:34;3.33;;;1.90;;
65377;SDS011;51982;51.042;13.806;2023-08-06T09:30:00;2.22;;;1.60;;
65377;SDS011;51982;51.042;13.806;2023-08-06T09:32:26;3.03;;;1.75;;
65377;SDS011;51982;51.042;13.806;2023-08-06T09:34:55;1.90;;;1.70;;
65377;SDS011;51982;51.042;13.806;2023-08-06T09:37:21;4.63;;;1.60;;
65377;SDS011;51982;51.042;13.806;2023-08-06T09:39:47;4.70;;;1.90;;
65377;SDS011;51982;51.042;13.806;2023-08-06T09:42:14;1.77;;;1.63;;
65377;SDS011;51982;51.042;13.806;2023-08-06T09:44:39;3.42;;;2.00;;
65377;SDS011;51982;51.042;13.806;2023-08-06T09:47:05;2.63;;;1.70;;
65377;SDS011;51982;51.042;13.806;2023-08-06T09:51:59;2.30;;;1.65;;
65377;SDS011;51982;51.042;13.806;2023-08-06T09:54:25;5.20;;;1.73;;
65377;SDS011;51982;51.042;13.806;2023-08-06T09:56:55;2.03;;;1.60;;
65377;SDS011;51982;51.042;13.806;2023-08-06T09:59:21;3.60;;;1.77;;
65377;SDS011;51982;51.042;13.806;2023-08-06T10:01:47;3.33;;;1.75;;
65377;SDS011;51982;51.042;13.806;2023-08-06T10:04:14;3.22;;;1.70;;
65377;SDS011;51982;51.042;13.806;2023-08-06T10:06:41;3.60;;;1.75;;
65377;SDS011;51982;51.042;13.806;2023-08-06T10:09:07;2.90;;;1.70;;
65377;SDS011;51982;51.042;13.806;2023-08-06T10:11:34;2.67;;;1.85;;
65377;SDS011;51982;51.042;13.806;2023-08-06T10:14:11;2.00;;;1.70;;
65377;SDS011;51982;51.042;13.806;2023-08-06T10:16:39;4.05;;;2.08;;
65377;SDS011;51982;51.042;13.806;2023-08-06T10:19:05;2.03;;;1.73;;
65377;SDS011;51982;51.042;13.806;2023-08-06T10:21:33;1.90;;;1.70;;
65377;SDS011;51982;51.042;13.806;2023-08-06T10:23:59;2.28;;;1.92;;
65377;SDS011;51982;51.042;13.806;2023-08-06T10:26:28;3.20;;;2.00;;
65377;SDS011;51982;51.042;13.806;2023-08-06T10:28:54;2.20;;;1.90;;
65377;SDS011;51982;51.042;13.806;2023-08-06T10:31:20;2.22;;;1.60;;
65377;SDS011;51982;51.042;13.806;2023-08-06T10:34:20;2.25;;;1.67;;
65377;SDS011;51982;51.042;13.806;2023-08-06T10:36:46;2.72;;;1.70;;
65377;SDS011;51982;51.042;13.806;2023-08-06T10:39:14;1.92;;;1.60;;
65377;SDS011;51982;51.042;13.806;2023-08-06T10:41:41;2.42;;;1.70;;
65377;SDS011;51982;51.042;13.806;2023-08-06T10:44:08;3.00;;;1.80;;
65377;SDS011;51982;51.042;13.806;2023-08-06T10:46:34;2.80;;;1.40;;
65377;SDS011;51982;51.042;13.806;2023-08-06T10:49:00;3.60;;;1.70;;
65377;SDS011;51982;51.042;13.806;2023-08-06T10:51:26;2.40;;;1.75;;
65377;SDS011;51982;51.042;13.806;2023-08-06T10:53:52;4.32;;;1.50;;
65377;SDS011;51982;51.042;13.806;2023-08-06T10:56:18;1.98;;;1.40;;
65377;SDS011;51982;51.042;13.806;2023-08-06T10:58:45;1.98;;;1.63;;
65377;SDS011;51982;51.042;13.806;2023-08-06T11:01:11;2.25;;;2.00;;
65377;SDS011;51982;51.042;13.806;2023-08-06T11:03:37;3.80;;;1.73;;
65377;SDS011;51982;51.042;13.806;2023-08-06T11:06:03;2.60;;;1.73;;
65377;SDS011;51982;51.042;13.806;2023-08-06T11:08:33;3.25;;;1.80;;
65377;SDS011;51982;51.042;13.806;2023-08-06T11:11:09;2.22;;;1.70;;
65377;SDS011;51982;51.042;13.806;2023-08-06T11:13:44;2.35;;;1.67;;
65377;SDS011;51982;51.042;13.806;2023-08-06T11:16:12;1.88;;;1.60;;
65377;SDS011;51982;51.042;13.806;2023-08-06T11:18:42;3.28;;;1.25;;
65377;SDS011;51982;51.042;13.806;2023-08-06T11:21:08;2.95;;;1.60;;
65377;SDS011;51982;51.042;13.806;2023-08-06T11:23:33;2.85;;;1.55;;
65377;SDS011;51982;51.042;13.806;2023-08-06T11:26:00;2.00;;;1.48;;
65377;SDS011;51982;51.042;13.806;2023-08-06T11:28:25;2.75;;;1.67;;
65377;SDS011;51982;51.042;13.806;2023-08-06T11:30:51;2.90;;;1.70;;
65377;SDS011;51982;51.042;13.806;2023-08-06T11:33:23;8.25;;;3.00;;
65377;SDS011;51982;51.042;13.806;2023-08-06T11:35:52;2.25;;;1.60;;
65377;SDS011;51982;51.042;13.806;2023-08-06T11:38:19;1.83;;;1.50;;
65377;SDS011;51982;51.042;13.806;2023-08-06T11:40:45;2.95;;;1.83;;
65377;SDS011;51982;51.042;13.806;2023-08-06T11:43:11;3.13;;;1.80;;
65377;SDS011;51982;51.042;13.806;2023-08-06T11:45:37;2.40;;;1.60;;
65377;SDS011;51982;51.042;13.806;2023-08-06T11:48:03;4.15;;;1.80;;
65377;SDS011;51982;51.042;13.806;2023-08-06T11:50:29;1.67;;;1.58;;
65377;SDS011;51982;51.042;13.806;2023-08-06T11:52:59;2.05;;;1.40;;
65377;SDS011;51982;51.042;13.806;2023-08-06T11:55:25;1.52;;;1.25;;
65377;SDS011;51982;51.042;13.806;2023-08-06T11:57:53;1.92;;;1.50;;
65377;SDS011;51982;51.042;13.806;2023-08-06T12:00:18;2.47;;;1.50;;
65377;SDS011;51982;51.042;13.806;2023-08-06T12:02:45;2.17;;;1.50;;
65377;SDS011;51982;51.042;13.806;2023-08-06T12:07:47;1.73;;;1.38;;
65377;SDS011;51982;51.042;13.806;2023-08-06T12:10:13;2.38;;;1.63;;
65377;SDS011;51982;51.042;13.806;2023-08-06T12:12:39;1.80;;;1.50;;
65377;SDS011;51982;51.042;13.806;2023-08-06T12:15:05;1.90;;;1.48;;
65377;SDS011;51982;51.042;13.806;2023-08-06T12:17:32;2.60;;;1.70;;
65377;SDS011;51982;51.042;13.806;2023-08-06T12:19:57;1.77;;;1.55;;
65377;SDS011;51982;51.042;13.806;2023-08-06T12:22:23;2.17;;;1.48;;
65377;SDS011;51982;51.042;13.806;2023-08-06T12:24:48;2.30;;;1.50;;
65377;SDS011;51982;51.042;13.806;2023-08-06T12:27:13;2.00;;;1.65;;
65377;SDS011;51982;51.042;13.806;2023-08-06T12:29:46;6.85;;;1.67;;
65377;SDS011;51982;51.042;13.806;2023-08-06T12:34:39;1.52;;;1.42;;
65377;SDS011;51982;51.042;13.806;2023-08-06T12:37:05;3.40;;;1.67;;
65377;SDS011;51982;51.042;13.806;2023-08-06T12:39:32;2.15;;;1.52;;
65377;SDS011;51982;51.042;13.806;2023-08-06T12:41:58;2.80;;;1.80;;
65377;SDS011;51982;51.042;13.806;2023-08-06T12:44:27;2.75;;;2.38;;
65377;SDS011;51982;51.042;13.806;2023-08-06T12:46:53;2.60;;;2.10;;
65377;SDS011;51982;51.042;13.806;2023-08-06T12:49:19;4.88;;;1.83;;
65377;SDS011;51982;51.042;13.806;2023-08-06T12:51:48;4.05;;;1.90;;
65377;SDS011;51982;51.042;13.806;2023-08-06T12:54:15;4.13;;;2.42;;
65377;SDS011;51982;51.042;13.806;2023-08-06T12:56:42;6.90;;;2.35;;
65377;SDS011;51982;51.042;13.806;2023-08-06T12:59:07;5.30;;;1.90;;
65377;SDS011;51982;51.042;13.806;2023-08-06T13:01:32;1.97;;;1.70;;
65377;SDS011;51982;51.042;13.806;2023-08-06T13:03:58;2.17;;;1.88;;
65377;SDS011;51982;51.042;13.806;2023-08-06T13:06:24;2.53;;;1.85;;
65377;SDS011;51982;51.042;13.806;2023-08-06T13:08:49;3.85;;;1.55;;
65377;SDS011;51982;51.042;13.806;2023-08-06T13:11:15;2.10;;;1.73;;
65377;SDS011;51982;51.042;13.806;2023-08-06T13:13:40;2.83;;;2.10;;
65377;SDS011;51982;51.042;13.806;2023-08-06T13:16:05;2.67;;;1.80;;
65377;SDS011;51982;51.042;13.806;2023-08-06T13:18:30;2.25;;;1.90;;
65377;SDS011;51982;51.042;13.806;2023-08-06T13:20:56;2.60;;;1.80;;
65377;SDS011;51982;51.042;13.806;2023-08-06T13:23:21;2.47;;;1.70;;
65377;SDS011;51982;51.042;13.806;2023-08-06T13:25:46;2.15;;;1.73;;
65377;SDS011;51982;51.042;13.806;2023-08-06T13:28:12;1.88;;;1.27;;
65377;SDS011;51982;51.042;13.806;2023-08-06T13:30:39;12.68;;;1.60;;
65377;SDS011;51982;51.042;13.806;2023-08-06T13:33:10;3.22;;;1.30;;
65377;SDS011;51982;51.042;13.806;2023-08-06T13:35:36;2.72;;;1.70;;
65377;SDS011;51982;51.042;13.806;2023-08-06T13:38:02;3.67;;;1.83;;
65377;SDS011;51982;51.042;13.806;2023-08-06T13:40:31;3.00;;;1.60;;
65377;SDS011;51982;51.042;13.806;2023-08-06T13:42:57;3.67;;;1.52;;
65377;SDS011;51982;51.042;13.806;2023-08-06T13:45:23;1.70;;;1.30;;
65377;SDS011;51982;51.042;13.806;2023-08-06T13:47:48;2.90;;;1.50;;
65377;SDS011;51982;51.042;13.806;2023-08-06T13:50:14;1.80;;;1.38;;
65377;SDS011;51982;51.042;13.806;2023-08-06T13:52:39;2.00;;;1.50;;
65377;SDS011;51982;51.042;13.806;2023-08-06T13:55:07;1.80;;;1.40;;
65377;SDS011;51982;51.042;13.806;2023-08-06T13:57:34;1.95;;;1.52;;
65377;SDS011;51982;51.042;13.806;2023-08-06T13:59:59;1.70;;;1.40;;
65377;SDS011;51982;51.042;13.806;2023-08-06T14:02:25;3.05;;;1.48;;
65377;SDS011;51982;51.042;13.806;2023-08-06T14:04:51;2.78;;;1.40;;
65377;SDS011;51982;51.042;13.806;2023-08-06T14:07:17;4.18;;;1.40;;
65377;SDS011;51982;51.042;13.806;2023-08-06T14:09:42;2.47;;;1.50;;
65377;SDS011;51982;51.042;13.806;2023-08-06T14:12:09;2.28;;;1.65;;
65377;SDS011;51982;51.042;13.806;2023-08-06T14:14:34;2.53;;;1.50;;
65377;SDS011;51982;51.042;13.806;2023-08-06T14:17:00;1.50;;;1.40;;
65377;SDS011;51982;51.042;13.806;2023-08-06T14:19:26;2.10;;;1.80;;
65377;SDS011;51982;51.042;13.806;2023-08-06T14:21:51;2.40;;;1.50;;
65377;SDS011;51982;51.042;13.806;2023-08-06T14:24:16;2.63;;;1.40;;
65377;SDS011;51982;51.042;13.806;2023-08-06T14:26:41;1.97;;;1.60;;
65377;SDS011;51982;51.042;13.806;2023-08-06T14:29:07;2.97;;;1.55;;
65377;SDS011;51982;51.042;13.806;2023-08-06T14:31:32;1.42;;;1.30;;
65377;SDS011;51982;51.042;13.806;2023-08-06T14:33:57;3.03;;;1.70;;
65377;SDS011;51982;51.042;13.806;2023-08-06T14:36:23;2.63;;;1.45;;
65377;SDS011;51982;51.042;13.806;2023-08-06T14:38:48;4.13;;;1.50;;